sensor_id;sensor_type;location;lat;lon;timestamp;temperature;humidity
16968;DHT22;8600;54.338;10.128;2022-09-09T00:00:34;14.40;99.90
16968;DHT22;8600;54.338;10.128;2022-09-09T00:03:08;14.40;99.90
16968;DHT22;8600;54.338;10.128;2022-09-09T00:05:42;14.40;99.90
16968;DHT22;8600;54.338;10.128;2022-09-09T00:08:17;14.50;99.90
16968;DHT22;8600;54.338;10.128;2022-09-09T00:10:50;14.50;99.90
16968;DHT22;8600;54.338;10.128;2022-09-09T00:13:22;14.50;99.90
16968;DHT22;8600;54.338;10.128;2022-09-09T00:15:56;14.50;99.90
16968;DHT22;8600;54.338;10.128;2022-09-09T00:18:27;14.50;99.90
16968;DHT22;8600;54.338;10.128;2022-09-09T00:20:59;14.50;99.90
16968;DHT22;8600;54.338;10.128;2022-09-09T00:23:30;14.50;99.90
16968;DHT22;8600;54.338;10.128;2022-09-09T00:26:04;14.50;99.90
16968;DHT22;8600;54.338;10.128;2022-09-09T00:28:38;14.50;99.90
16968;DHT22;8600;54.338;10.128;2022-09-09T00:31:09;14.50;99.90
16968;DHT22;8600;54.338;10.128;2022-09-09T00:33:38;14.60;99.90
16968;DHT22;8600;54.338;10.128;2022-09-09T00:36:12;14.50;99.90
16968;DHT22;8600;54.338;10.128;2022-09-09T00:38:43;14.60;99.90
16968;DHT22;8600;54.338;10.128;2022-09-09T00:41:19;14.60;99.90
16968;DHT22;8600;54.338;10.128;2022-09-09T00:43:55;14.60;99.90
16968;DHT22;8600;54.338;10.128;2022-09-09T00:46:47;14.60;99.90
16968;DHT22;8600;54.338;10.128;2022-09-09T00:49:25;14.60;99.90
16968;DHT22;8600;54.338;10.128;2022-09-09T00:52:05;14.60;99.90
16968;DHT22;8600;54.338;10.128;2022-09-09T00:54:44;14.60;99.90
16968;DHT22;8600;54.338;10.128;2022-09-09T00:57:23;14.60;99.90
16968;DHT22;8600;54.338;10.128;2022-09-09T00:59:58;14.60;99.90
16968;DHT22;8600;54.338;10.128;2022-09-09T01:02:28;14.60;99.90
16968;DHT22;8600;54.338;10.128;2022-09-09T01:05:00;14.60;99.90
16968;DHT22;8600;54.338;10.128;2022-09-09T01:07:28;14.60;99.90
16968;DHT22;8600;54.338;10.128;2022-09-09T01:09:57;14.60;99.90
16968;DHT22;8600;54.338;10.128;2022-09-09T01:12:32;14.60;99.90
16968;DHT22;8600;54.338;10.128;2022-09-09T01:15:09;14.60;99.90
16968;DHT22;8600;54.338;10.128;2022-09-09T01:17:58;14.60;99.90
16968;DHT22;8600;54.338;10.128;2022-09-09T01:20:28;14.70;99.90
16968;DHT22;8600;54.338;10.128;2022-09-09T01:23:15;14.60;99.90
16968;DHT22;8600;54.338;10.128;2022-09-09T01:26:18;14.60;99.90
16968;DHT22;8600;54.338;10.128;2022-09-09T01:28:47;14.60;99.90
16968;DHT22;8600;54.338;10.128;2022-09-09T01:31:19;14.60;99.90
16968;DHT22;8600;54.338;10.128;2022-09-09T01:33:47;14.60;99.90
16968;DHT22;8600;54.338;10.128;2022-09-09T01:36:20;14.60;99.90
16968;DHT22;8600;54.338;10.128;2022-09-09T01:38:51;14.60;99.90
16968;DHT22;8600;54.338;10.128;2022-09-09T01:41:20;14.70;99.90
16968;DHT22;8600;54.338;10.128;2022-09-09T01:43:59;14.70;99.90
16968;DHT22;8600;54.338;10.128;2022-09-09T01:46:28;14.70;99.90
16968;DHT22;8600;54.338;10.128;2022-09-09T01:48:57;14.60;99.90
16968;DHT22;8600;54.338;10.128;2022-09-09T01:51:26;14.60;99.90
16968;DHT22;8600;54.338;10.128;2022-09-09T01:53:53;14.60;99.90
16968;DHT22;8600;54.338;10.128;2022-09-09T01:56:39;14.70;99.90
16968;DHT22;8600;54.338;10.128;2022-09-09T01:59:22;14.70;99.90
16968;DHT22;8600;54.338;10.128;2022-09-09T02:02:08;14.70;99.90
16968;DHT22;8600;54.338;10.128;2022-09-09T02:04:39;14.70;99.90
16968;DHT22;8600;54.338;10.128;2022-09-09T02:07:22;14.70;99.90
16968;DHT22;8600;54.338;10.128;2022-09-09T02:09:58;14.60;99.90
16968;DHT22;8600;54.338;10.128;2022-09-09T02:12:30;14.60;99.90
16968;DHT22;8600;54.338;10.128;2022-09-09T02:15:03;14.70;99.90
16968;DHT22;8600;54.338;10.128;2022-09-09T02:17:41;14.70;99.90
16968;DHT22;8600;54.338;10.128;2022-09-09T02:20:14;14.70;99.90
16968;DHT22;8600;54.338;10.128;2022-09-09T02:22:49;14.70;99.90
16968;DHT22;8600;54.338;10.128;2022-09-09T02:25:21;14.70;99.90
16968;DHT22;8600;54.338;10.128;2022-09-09T02:27:52;14.60;99.90
16968;DHT22;8600;54.338;10.128;2022-09-09T02:30:19;14.60;99.90
16968;DHT22;8600;54.338;10.128;2022-09-09T02:32:53;14.60;99.90
16968;DHT22;8600;54.338;10.128;2022-09-09T02:35:27;14.60;99.90
16968;DHT22;8600;54.338;10.128;2022-09-09T02:38:00;14.60;99.90
16968;DHT22;8600;54.338;10.128;2022-09-09T02:40:28;14.60;99.90
16968;DHT22;8600;54.338;10.128;2022-09-09T02:43:01;14.60;99.90
16968;DHT22;8600;54.338;10.128;2022-09-09T02:45:35;14.60;99.90
16968;DHT22;8600;54.338;10.128;2022-09-09T02:48:09;14.60;99.90
16968;DHT22;8600;54.338;10.128;2022-09-09T02:50:43;14.60;99.90
16968;DHT22;8600;54.338;10.128;2022-09-09T02:53:17;14.60;99.90
16968;DHT22;8600;54.338;10.128;2022-09-09T02:55:48;14.60;99.90
16968;DHT22;8600;54.338;10.128;2022-09-09T02:58:21;14.70;99.90
16968;DHT22;8600;54.338;10.128;2022-09-09T03:01:02;14.60;99.90
16968;DHT22;8600;54.338;10.128;2022-09-09T03:03:30;14.60;99.90
16968;DHT22;8600;54.338;10.128;2022-09-09T03:06:00;14.60;99.90
16968;DHT22;8600;54.338;10.128;2022-09-09T03:08:28;14.60;99.90
16968;DHT22;8600;54.338;10.128;2022-09-09T03:10:58;14.60;99.90
16968;DHT22;8600;54.338;10.128;2022-09-09T03:13:29;14.50;99.90
16968;DHT22;8600;54.338;10.128;2022-09-09T03:15:56;14.50;99.90
16968;DHT22;8600;54.338;10.128;2022-09-09T03:18:23;14.50;99.90
16968;DHT22;8600;54.338;10.128;2022-09-09T03:20:53;14.50;99.90
16968;DHT22;8600;54.338;10.128;2022-09-09T03:23:20;14.40;99.90
16968;DHT22;8600;54.338;10.128;2022-09-09T03:25:49;14.50;99.90
16968;DHT22;8600;54.338;10.128;2022-09-09T03:28:20;14.50;99.90
16968;DHT22;8600;54.338;10.128;2022-09-09T03:30:51;14.50;99.90
16968;DHT22;8600;54.338;10.128;2022-09-09T03:33:20;14.50;99.90
16968;DHT22;8600;54.338;10.128;2022-09-09T03:35:47;14.50;99.90
16968;DHT22;8600;54.338;10.128;2022-09-09T03:38:14;14.50;99.90
16968;DHT22;8600;54.338;10.128;2022-09-09T03:40:49;14.60;99.90
16968;DHT22;8600;54.338;10.128;2022-09-09T03:43:17;14.60;99.90
16968;DHT22;8600;54.338;10.128;2022-09-09T03:45:45;14.60;99.90
16968;DHT22;8600;54.338;10.128;2022-09-09T03:48:15;14.60;99.90
16968;DHT22;8600;54.338;10.128;2022-09-09T03:50:44;14.60;99.90
16968;DHT22;8600;54.338;10.128;2022-09-09T03:53:11;14.60;99.90
16968;DHT22;8600;54.338;10.128;2022-09-09T03:55:38;14.60;99.90
16968;DHT22;8600;54.338;10.128;2022-09-09T03:58:10;14.60;99.90
16968;DHT22;8600;54.338;10.128;2022-09-09T04:00:37;14.60;99.90
16968;DHT22;8600;54.338;10.128;2022-09-09T04:03:05;14.50;99.90
16968;DHT22;8600;54.338;10.128;2022-09-09T04:05:34;14.50;99.90
16968;DHT22;8600;54.338;10.128;2022-09-09T04:08:01;14.50;99.90
16968;DHT22;8600;54.338;10.128;2022-09-09T04:10:28;14.50;99.90
16968;DHT22;8600;54.338;10.128;2022-09-09T04:12:56;14.50;99.90
16968;DHT22;8600;54.338;10.128;2022-09-09T04:15:24;14.50;99.90
16968;DHT22;8600;54.338;10.128;2022-09-09T04:17:50;14.50;99.90
16968;DHT22;8600;54.338;10.128;2022-09-09T04:20:17;14.50;99.90
16968;DHT22;8600;54.338;10.128;2022-09-09T04:22:46;14.50;99.90
16968;DHT22;8600;54.338;10.128;2022-09-09T04:25:13;14.40;99.90
16968;DHT22;8600;54.338;10.128;2022-09-09T04:27:40;14.40;99.90
16968;DHT22;8600;54.338;10.128;2022-09-09T04:30:10;14.40;99.90
16968;DHT22;8600;54.338;10.128;2022-09-09T04:32:39;14.40;99.90
16968;DHT22;8600;54.338;10.128;2022-09-09T04:35:07;14.40;99.90
16968;DHT22;8600;54.338;10.128;2022-09-09T04:37:34;14.40;99.90
16968;DHT22;8600;54.338;10.128;2022-09-09T04:40:03;14.40;99.90
16968;DHT22;8600;54.338;10.128;2022-09-09T04:42:34;14.40;99.90
16968;DHT22;8600;54.338;10.128;2022-09-09T04:45:01;14.40;99.90
16968;DHT22;8600;54.338;10.128;2022-09-09T04:47:29;14.50;99.90
16968;DHT22;8600;54.338;10.128;2022-09-09T04:49:56;14.40;99.90
16968;DHT22;8600;54.338;10.128;2022-09-09T04:52:23;14.40;99.90
16968;DHT22;8600;54.338;10.128;2022-09-09T04:54:50;14.40;99.90
16968;DHT22;8600;54.338;10.128;2022-09-09T04:57:21;14.40;99.90
16968;DHT22;8600;54.338;10.128;2022-09-09T04:59:48;14.40;99.90
16968;DHT22;8600;54.338;10.128;2022-09-09T05:02:14;14.40;99.90
16968;DHT22;8600;54.338;10.128;2022-09-09T05:04:41;14.40;99.90
16968;DHT22;8600;54.338;10.128;2022-09-09T05:07:09;14.40;99.90
16968;DHT22;8600;54.338;10.128;2022-09-09T05:09:39;14.40;99.90
16968;DHT22;8600;54.338;10.128;2022-09-09T05:12:06;14.40;99.90
16968;DHT22;8600;54.338;10.128;2022-09-09T05:14:36;14.40;99.90
16968;DHT22;8600;54.338;10.128;2022-09-09T05:17:04;14.50;99.90
16968;DHT22;8600;54.338;10.128;2022-09-09T05:19:33;14.50;99.90
16968;DHT22;8600;54.338;10.128;2022-09-09T05:22:01;14.50;99.90
16968;DHT22;8600;54.338;10.128;2022-09-09T05:24:36;14.50;99.90
16968;DHT22;8600;54.338;10.128;2022-09-09T05:27:04;14.50;99.90
16968;DHT22;8600;54.338;10.128;2022-09-09T05:29:32;14.50;99.90
16968;DHT22;8600;54.338;10.128;2022-09-09T05:32:02;14.60;99.90
16968;DHT22;8600;54.338;10.128;2022-09-09T05:34:30;14.60;99.90
16968;DHT22;8600;54.338;10.128;2022-09-09T05:36:57;14.60;99.90
16968;DHT22;8600;54.338;10.128;2022-09-09T05:39:25;14.60;99.90
16968;DHT22;8600;54.338;10.128;2022-09-09T05:41:52;14.60;99.90
16968;DHT22;8600;54.338;10.128;2022-09-09T05:44:19;14.60;99.90
16968;DHT22;8600;54.338;10.128;2022-09-09T05:46:46;14.60;99.90
16968;DHT22;8600;54.338;10.128;2022-09-09T05:49:15;14.60;99.90
16968;DHT22;8600;54.338;10.128;2022-09-09T05:51:43;14.60;99.90
16968;DHT22;8600;54.338;10.128;2022-09-09T05:54:12;14.60;99.90
16968;DHT22;8600;54.338;10.128;2022-09-09T05:56:43;14.60;99.90
16968;DHT22;8600;54.338;10.128;2022-09-09T05:59:10;14.60;99.90
16968;DHT22;8600;54.338;10.128;2022-09-09T06:01:39;14.70;99.90
16968;DHT22;8600;54.338;10.128;2022-09-09T06:04:08;14.70;99.90
16968;DHT22;8600;54.338;10.128;2022-09-09T06:06:39;14.70;99.90
16968;DHT22;8600;54.338;10.128;2022-09-09T06:09:16;14.70;99.90
16968;DHT22;8600;54.338;10.128;2022-09-09T06:11:44;14.70;99.90
16968;DHT22;8600;54.338;10.128;2022-09-09T06:14:12;14.70;99.90
16968;DHT22;8600;54.338;10.128;2022-09-09T06:16:40;14.80;99.90
16968;DHT22;8600;54.338;10.128;2022-09-09T06:19:19;14.80;99.90
16968;DHT22;8600;54.338;10.128;2022-09-09T06:21:48;14.80;99.90
16968;DHT22;8600;54.338;10.128;2022-09-09T06:24:16;14.80;99.90
16968;DHT22;8600;54.338;10.128;2022-09-09T06:26:45;14.70;99.90
16968;DHT22;8600;54.338;10.128;2022-09-09T06:29:16;14.80;99.90
16968;DHT22;8600;54.338;10.128;2022-09-09T06:31:44;14.80;99.90
16968;DHT22;8600;54.338;10.128;2022-09-09T06:34:25;14.80;99.90
16968;DHT22;8600;54.338;10.128;2022-09-09T06:36:59;14.80;99.90
16968;DHT22;8600;54.338;10.128;2022-09-09T06:39:38;14.80;99.90
16968;DHT22;8600;54.338;10.128;2022-09-09T06:42:05;14.90;99.90
16968;DHT22;8600;54.338;10.128;2022-09-09T06:44:46;14.90;99.90
16968;DHT22;8600;54.338;10.128;2022-09-09T06:47:42;14.90;99.90
16968;DHT22;8600;54.338;10.128;2022-09-09T06:50:10;14.90;99.90
16968;DHT22;8600;54.338;10.128;2022-09-09T06:52:39;14.90;99.90
16968;DHT22;8600;54.338;10.128;2022-09-09T06:55:08;14.90;99.90
16968;DHT22;8600;54.338;10.128;2022-09-09T06:57:35;14.90;99.90
16968;DHT22;8600;54.338;10.128;2022-09-09T07:00:04;15.00;99.90
16968;DHT22;8600;54.338;10.128;2022-09-09T07:02:31;15.00;99.90
16968;DHT22;8600;54.338;10.128;2022-09-09T07:05:05;15.00;99.90
16968;DHT22;8600;54.338;10.128;2022-09-09T07:07:34;15.10;99.90
16968;DHT22;8600;54.338;10.128;2022-09-09T07:10:02;15.10;99.90
16968;DHT22;8600;54.338;10.128;2022-09-09T07:12:30;15.20;99.90
16968;DHT22;8600;54.338;10.128;2022-09-09T07:14:59;15.30;99.90
16968;DHT22;8600;54.338;10.128;2022-09-09T07:17:27;15.30;99.90
16968;DHT22;8600;54.338;10.128;2022-09-09T07:19:54;15.40;99.90
16968;DHT22;8600;54.338;10.128;2022-09-09T07:22:22;15.40;99.90
16968;DHT22;8600;54.338;10.128;2022-09-09T07:24:51;15.50;99.90
16968;DHT22;8600;54.338;10.128;2022-09-09T07:27:19;15.70;99.90
16968;DHT22;8600;54.338;10.128;2022-09-09T07:29:47;15.80;99.90
16968;DHT22;8600;54.338;10.128;2022-09-09T07:32:14;15.70;99.90
16968;DHT22;8600;54.338;10.128;2022-09-09T07:34:42;15.80;99.90
16968;DHT22;8600;54.338;10.128;2022-09-09T07:37:09;15.80;99.90
16968;DHT22;8600;54.338;10.128;2022-09-09T07:39:39;15.90;99.90
16968;DHT22;8600;54.338;10.128;2022-09-09T07:42:06;16.00;99.90
16968;DHT22;8600;54.338;10.128;2022-09-09T07:44:37;16.10;99.90
16968;DHT22;8600;54.338;10.128;2022-09-09T07:47:14;16.00;99.90
16968;DHT22;8600;54.338;10.128;2022-09-09T07:49:44;16.10;99.90
16968;DHT22;8600;54.338;10.128;2022-09-09T07:52:14;16.10;99.90
16968;DHT22;8600;54.338;10.128;2022-09-09T07:54:44;16.10;99.90
16968;DHT22;8600;54.338;10.128;2022-09-09T07:57:13;16.10;99.90
16968;DHT22;8600;54.338;10.128;2022-09-09T07:59:43;16.10;99.90
16968;DHT22;8600;54.338;10.128;2022-09-09T08:02:12;16.10;99.90
16968;DHT22;8600;54.338;10.128;2022-09-09T08:04:39;16.10;99.90
16968;DHT22;8600;54.338;10.128;2022-09-09T08:07:06;16.10;99.90
16968;DHT22;8600;54.338;10.128;2022-09-09T08:09:40;16.20;99.90
16968;DHT22;8600;54.338;10.128;2022-09-09T08:12:14;16.20;99.90
16968;DHT22;8600;54.338;10.128;2022-09-09T08:14:41;16.40;99.90
16968;DHT22;8600;54.338;10.128;2022-09-09T08:17:09;16.40;99.90
16968;DHT22;8600;54.338;10.128;2022-09-09T08:19:37;16.40;99.90
16968;DHT22;8600;54.338;10.128;2022-09-09T08:22:10;16.50;99.90
16968;DHT22;8600;54.338;10.128;2022-09-09T08:24:39;16.70;99.90
16968;DHT22;8600;54.338;10.128;2022-09-09T08:27:07;16.70;99.90
16968;DHT22;8600;54.338;10.128;2022-09-09T08:29:36;16.70;99.90
16968;DHT22;8600;54.338;10.128;2022-09-09T08:32:03;16.90;99.90
16968;DHT22;8600;54.338;10.128;2022-09-09T08:34:32;16.90;99.90
16968;DHT22;8600;54.338;10.128;2022-09-09T08:37:03;17.10;99.90
16968;DHT22;8600;54.338;10.128;2022-09-09T08:39:36;17.20;99.90
16968;DHT22;8600;54.338;10.128;2022-09-09T08:42:21;17.30;99.90
16968;DHT22;8600;54.338;10.128;2022-09-09T08:45:14;17.50;99.90
16968;DHT22;8600;54.338;10.128;2022-09-09T08:47:54;17.60;99.90
16968;DHT22;8600;54.338;10.128;2022-09-09T08:50:30;17.70;99.90
16968;DHT22;8600;54.338;10.128;2022-09-09T08:53:05;17.80;99.90
16968;DHT22;8600;54.338;10.128;2022-09-09T08:55:41;17.80;99.90
16968;DHT22;8600;54.338;10.128;2022-09-09T08:58:14;17.90;99.90
16968;DHT22;8600;54.338;10.128;2022-09-09T09:00:45;17.80;99.90
16968;DHT22;8600;54.338;10.128;2022-09-09T09:03:19;17.80;99.90
16968;DHT22;8600;54.338;10.128;2022-09-09T09:05:59;17.80;99.90
16968;DHT22;8600;54.338;10.128;2022-09-09T09:08:35;17.70;99.90
16968;DHT22;8600;54.338;10.128;2022-09-09T09:11:05;17.60;99.90
16968;DHT22;8600;54.338;10.128;2022-09-09T09:13:38;17.50;99.90
16968;DHT22;8600;54.338;10.128;2022-09-09T09:16:14;17.60;99.90
16968;DHT22;8600;54.338;10.128;2022-09-09T09:18:42;17.70;99.90
16968;DHT22;8600;54.338;10.128;2022-09-09T09:21:15;17.80;99.90
16968;DHT22;8600;54.338;10.128;2022-09-09T09:23:48;17.80;99.90
16968;DHT22;8600;54.338;10.128;2022-09-09T09:26:19;17.90;99.90
16968;DHT22;8600;54.338;10.128;2022-09-09T09:28:48;18.00;99.90
16968;DHT22;8600;54.338;10.128;2022-09-09T09:31:18;18.10;99.90
16968;DHT22;8600;54.338;10.128;2022-09-09T09:33:49;18.40;99.90
16968;DHT22;8600;54.338;10.128;2022-09-09T09:36:20;18.60;99.90
16968;DHT22;8600;54.338;10.128;2022-09-09T09:38:55;18.60;99.90
16968;DHT22;8600;54.338;10.128;2022-09-09T09:41:32;18.70;99.90
16968;DHT22;8600;54.338;10.128;2022-09-09T09:44:01;18.80;99.90
16968;DHT22;8600;54.338;10.128;2022-09-09T09:46:28;18.80;99.90
16968;DHT22;8600;54.338;10.128;2022-09-09T09:49:10;19.00;99.90
16968;DHT22;8600;54.338;10.128;2022-09-09T09:51:40;19.20;99.90
16968;DHT22;8600;54.338;10.128;2022-09-09T09:54:15;19.00;99.90
16968;DHT22;8600;54.338;10.128;2022-09-09T09:56:49;19.00;99.90
16968;DHT22;8600;54.338;10.128;2022-09-09T09:59:23;19.00;99.90
16968;DHT22;8600;54.338;10.128;2022-09-09T10:01:51;18.90;99.90
16968;DHT22;8600;54.338;10.128;2022-09-09T10:04:21;18.80;99.90
16968;DHT22;8600;54.338;10.128;2022-09-09T10:06:53;18.80;99.90
16968;DHT22;8600;54.338;10.128;2022-09-09T10:09:24;19.00;99.90
16968;DHT22;8600;54.338;10.128;2022-09-09T10:11:57;19.10;99.90
16968;DHT22;8600;54.338;10.128;2022-09-09T10:14:35;19.20;99.90
16968;DHT22;8600;54.338;10.128;2022-09-09T10:17:16;19.20;99.90
16968;DHT22;8600;54.338;10.128;2022-09-09T10:19:58;19.30;99.90
16968;DHT22;8600;54.338;10.128;2022-09-09T10:22:32;19.00;99.90
16968;DHT22;8600;54.338;10.128;2022-09-09T10:25:23;19.10;99.90
16968;DHT22;8600;54.338;10.128;2022-09-09T10:28:05;19.00;99.90
16968;DHT22;8600;54.338;10.128;2022-09-09T10:30:44;19.00;99.90
16968;DHT22;8600;54.338;10.128;2022-09-09T10:33:22;19.00;99.90
16968;DHT22;8600;54.338;10.128;2022-09-09T10:35:58;19.10;99.90
16968;DHT22;8600;54.338;10.128;2022-09-09T10:38:33;19.20;99.90
16968;DHT22;8600;54.338;10.128;2022-09-09T10:41:15;19.50;99.90
16968;DHT22;8600;54.338;10.128;2022-09-09T10:43:54;19.70;99.90
16968;DHT22;8600;54.338;10.128;2022-09-09T10:46:31;19.60;99.90
16968;DHT22;8600;54.338;10.128;2022-09-09T10:49:10;19.70;99.90
16968;DHT22;8600;54.338;10.128;2022-09-09T10:51:51;19.80;99.90
16968;DHT22;8600;54.338;10.128;2022-09-09T10:54:33;19.90;99.90
16968;DHT22;8600;54.338;10.128;2022-09-09T10:57:12;19.90;99.90
16968;DHT22;8600;54.338;10.128;2022-09-09T10:59:43;19.80;99.90
16968;DHT22;8600;54.338;10.128;2022-09-09T11:02:15;19.80;99.90
16968;DHT22;8600;54.338;10.128;2022-09-09T11:04:50;19.60;99.90
16968;DHT22;8600;54.338;10.128;2022-09-09T11:07:24;19.50;99.90
16968;DHT22;8600;54.338;10.128;2022-09-09T11:09:59;19.70;99.90
16968;DHT22;8600;54.338;10.128;2022-09-09T11:12:30;19.70;99.90
16968;DHT22;8600;54.338;10.128;2022-09-09T11:15:01;19.80;99.90
16968;DHT22;8600;54.338;10.128;2022-09-09T11:17:36;19.80;99.90
16968;DHT22;8600;54.338;10.128;2022-09-09T11:20:11;19.80;99.90
16968;DHT22;8600;54.338;10.128;2022-09-09T11:22:44;19.90;99.90
16968;DHT22;8600;54.338;10.128;2022-09-09T11:25:17;20.00;99.90
16968;DHT22;8600;54.338;10.128;2022-09-09T11:28:01;20.10;99.90
16968;DHT22;8600;54.338;10.128;2022-09-09T11:30:44;20.20;99.90
16968;DHT22;8600;54.338;10.128;2022-09-09T11:33:53;20.10;99.90
16968;DHT22;8600;54.338;10.128;2022-09-09T11:36:43;20.50;99.90
16968;DHT22;8600;54.338;10.128;2022-09-09T11:39:35;20.50;99.90
16968;DHT22;8600;54.338;10.128;2022-09-09T11:42:22;20.80;99.90
16968;DHT22;8600;54.338;10.128;2022-09-09T11:44:50;21.10;99.90
16968;DHT22;8600;54.338;10.128;2022-09-09T11:47:22;21.10;99.90
16968;DHT22;8600;54.338;10.128;2022-09-09T11:49:50;20.80;99.90
16968;DHT22;8600;54.338;10.128;2022-09-09T11:52:22;20.50;99.90
16968;DHT22;8600;54.338;10.128;2022-09-09T11:54:51;20.60;99.90
16968;DHT22;8600;54.338;10.128;2022-09-09T11:57:26;20.90;99.90
16968;DHT22;8600;54.338;10.128;2022-09-09T11:59:54;20.90;99.90
16968;DHT22;8600;54.338;10.128;2022-09-09T12:02:24;20.90;99.90
16968;DHT22;8600;54.338;10.128;2022-09-09T12:04:57;20.90;99.90
16968;DHT22;8600;54.338;10.128;2022-09-09T12:07:31;20.80;99.90
16968;DHT22;8600;54.338;10.128;2022-09-09T12:10:03;20.90;99.90
16968;DHT22;8600;54.338;10.128;2022-09-09T12:12:35;20.70;99.90
16968;DHT22;8600;54.338;10.128;2022-09-09T12:15:26;20.70;99.90
16968;DHT22;8600;54.338;10.128;2022-09-09T12:17:56;20.80;99.90
16968;DHT22;8600;54.338;10.128;2022-09-09T12:20:34;20.80;99.90
16968;DHT22;8600;54.338;10.128;2022-09-09T12:23:15;21.00;99.90
16968;DHT22;8600;54.338;10.128;2022-09-09T12:25:55;20.90;99.90
16968;DHT22;8600;54.338;10.128;2022-09-09T12:28:32;20.80;99.90
16968;DHT22;8600;54.338;10.128;2022-09-09T12:31:09;20.90;99.90
16968;DHT22;8600;54.338;10.128;2022-09-09T12:33:39;20.90;99.90
16968;DHT22;8600;54.338;10.128;2022-09-09T12:36:11;20.90;99.90
16968;DHT22;8600;54.338;10.128;2022-09-09T12:38:40;20.90;99.90
16968;DHT22;8600;54.338;10.128;2022-09-09T12:41:18;20.70;99.90
16968;DHT22;8600;54.338;10.128;2022-09-09T12:43:47;20.70;99.90
16968;DHT22;8600;54.338;10.128;2022-09-09T12:46:23;20.80;99.90
16968;DHT22;8600;54.338;10.128;2022-09-09T12:48:53;20.90;99.90
16968;DHT22;8600;54.338;10.128;2022-09-09T12:51:25;21.00;99.90
16968;DHT22;8600;54.338;10.128;2022-09-09T12:53:53;21.30;99.90
16968;DHT22;8600;54.338;10.128;2022-09-09T12:56:23;21.50;99.90
16968;DHT22;8600;54.338;10.128;2022-09-09T12:58:54;21.60;99.90
16968;DHT22;8600;54.338;10.128;2022-09-09T13:01:24;21.50;99.90
16968;DHT22;8600;54.338;10.128;2022-09-09T13:03:51;21.40;99.90
16968;DHT22;8600;54.338;10.128;2022-09-09T13:06:21;21.20;99.90
16968;DHT22;8600;54.338;10.128;2022-09-09T13:08:49;20.90;99.90
16968;DHT22;8600;54.338;10.128;2022-09-09T13:11:20;21.00;99.90
16968;DHT22;8600;54.338;10.128;2022-09-09T13:13:53;21.30;99.90
16968;DHT22;8600;54.338;10.128;2022-09-09T13:16:25;21.60;99.90
16968;DHT22;8600;54.338;10.128;2022-09-09T13:18:57;21.60;99.90
16968;DHT22;8600;54.338;10.128;2022-09-09T13:21:35;21.50;99.90
16968;DHT22;8600;54.338;10.128;2022-09-09T13:24:04;21.80;99.90
16968;DHT22;8600;54.338;10.128;2022-09-09T13:26:34;21.90;99.90
16968;DHT22;8600;54.338;10.128;2022-09-09T13:29:17;22.10;99.90
16968;DHT22;8600;54.338;10.128;2022-09-09T13:31:45;22.20;99.90
16968;DHT22;8600;54.338;10.128;2022-09-09T13:34:13;21.90;99.90
16968;DHT22;8600;54.338;10.128;2022-09-09T13:36:41;22.00;99.90
16968;DHT22;8600;54.338;10.128;2022-09-09T13:39:15;22.10;99.90
16968;DHT22;8600;54.338;10.128;2022-09-09T13:41:43;22.00;99.90
16968;DHT22;8600;54.338;10.128;2022-09-09T13:44:19;21.80;99.90
16968;DHT22;8600;54.338;10.128;2022-09-09T13:47:00;21.60;99.90
16968;DHT22;8600;54.338;10.128;2022-09-09T13:49:29;21.60;99.90
16968;DHT22;8600;54.338;10.128;2022-09-09T13:52:04;21.70;99.90
16968;DHT22;8600;54.338;10.128;2022-09-09T13:54:33;22.00;99.90
16968;DHT22;8600;54.338;10.128;2022-09-09T13:57:00;21.70;99.90
16968;DHT22;8600;54.338;10.128;2022-09-09T13:59:29;21.70;99.90
16968;DHT22;8600;54.338;10.128;2022-09-09T14:01:57;21.70;99.90
16968;DHT22;8600;54.338;10.128;2022-09-09T14:04:24;21.70;99.90
16968;DHT22;8600;54.338;10.128;2022-09-09T14:06:51;21.80;99.90
16968;DHT22;8600;54.338;10.128;2022-09-09T14:09:19;22.00;99.90
16968;DHT22;8600;54.338;10.128;2022-09-09T14:11:46;22.10;99.90
16968;DHT22;8600;54.338;10.128;2022-09-09T14:14:13;22.10;99.90
16968;DHT22;8600;54.338;10.128;2022-09-09T14:16:41;22.30;99.90
16968;DHT22;8600;54.338;10.128;2022-09-09T14:19:08;22.20;99.90
16968;DHT22;8600;54.338;10.128;2022-09-09T14:21:35;22.10;99.90
16968;DHT22;8600;54.338;10.128;2022-09-09T14:24:02;22.10;99.90
16968;DHT22;8600;54.338;10.128;2022-09-09T14:26:29;22.00;99.90
16968;DHT22;8600;54.338;10.128;2022-09-09T14:28:56;21.80;99.90
16968;DHT22;8600;54.338;10.128;2022-09-09T14:31:24;21.90;99.90
16968;DHT22;8600;54.338;10.128;2022-09-09T14:33:52;21.60;99.90
16968;DHT22;8600;54.338;10.128;2022-09-09T14:36:20;21.40;99.90
16968;DHT22;8600;54.338;10.128;2022-09-09T14:38:47;21.30;99.90
16968;DHT22;8600;54.338;10.128;2022-09-09T14:41:16;21.10;99.90
16968;DHT22;8600;54.338;10.128;2022-09-09T14:43:43;21.00;99.90
16968;DHT22;8600;54.338;10.128;2022-09-09T14:46:12;21.00;99.90
16968;DHT22;8600;54.338;10.128;2022-09-09T14:48:39;20.80;99.90
16968;DHT22;8600;54.338;10.128;2022-09-09T14:51:10;20.80;99.90
16968;DHT22;8600;54.338;10.128;2022-09-09T14:53:39;20.70;99.90
16968;DHT22;8600;54.338;10.128;2022-09-09T14:56:07;20.60;99.90
16968;DHT22;8600;54.338;10.128;2022-09-09T14:58:35;20.40;99.90
16968;DHT22;8600;54.338;10.128;2022-09-09T15:01:04;20.20;99.90
16968;DHT22;8600;54.338;10.128;2022-09-09T15:03:31;20.10;99.90
16968;DHT22;8600;54.338;10.128;2022-09-09T15:05:58;19.90;99.90
16968;DHT22;8600;54.338;10.128;2022-09-09T15:08:26;19.70;99.90
16968;DHT22;8600;54.338;10.128;2022-09-09T15:10:59;19.50;99.90
16968;DHT22;8600;54.338;10.128;2022-09-09T15:13:27;19.40;99.90
16968;DHT22;8600;54.338;10.128;2022-09-09T15:15:54;19.30;99.90
16968;DHT22;8600;54.338;10.128;2022-09-09T15:18:21;19.30;99.90
16968;DHT22;8600;54.338;10.128;2022-09-09T15:20:47;19.20;99.90
16968;DHT22;8600;54.338;10.128;2022-09-09T15:23:15;19.00;99.90
16968;DHT22;8600;54.338;10.128;2022-09-09T15:25:51;18.90;99.90
16968;DHT22;8600;54.338;10.128;2022-09-09T15:28:18;18.70;99.90
16968;DHT22;8600;54.338;10.128;2022-09-09T15:30:48;18.70;99.90
16968;DHT22;8600;54.338;10.128;2022-09-09T15:33:15;18.40;99.90
16968;DHT22;8600;54.338;10.128;2022-09-09T15:35:42;18.00;99.90
16968;DHT22;8600;54.338;10.128;2022-09-09T15:38:09;17.80;99.90
16968;DHT22;8600;54.338;10.128;2022-09-09T15:40:38;17.40;99.90
16968;DHT22;8600;54.338;10.128;2022-09-09T15:43:08;17.00;99.90
16968;DHT22;8600;54.338;10.128;2022-09-09T15:45:36;16.90;99.90
16968;DHT22;8600;54.338;10.128;2022-09-09T15:48:03;16.80;99.90
16968;DHT22;8600;54.338;10.128;2022-09-09T15:50:30;16.90;99.90
16968;DHT22;8600;54.338;10.128;2022-09-09T15:52:58;17.00;99.90
16968;DHT22;8600;54.338;10.128;2022-09-09T15:55:25;17.00;99.90
16968;DHT22;8600;54.338;10.128;2022-09-09T15:57:52;16.90;99.90